Impacts METAR Board
IDs:

KSSF - San Antonio/Stinson, TX, US

Updated at: 1600 UTC 03 Dec 2021
Potential Impact None Slight Moderate High
Time 03/04Z 03/05Z 03/06Z 03/07Z 03/08Z 03/09Z 03/10Z 03/11Z 03/12Z 03/13Z 03/14Z 03/15Z 03/16Z
Temp65 66 69 69 69 69 70 70 70 70 69 69 70
Dewpt60 62 66 66 65 66 66 66 66 66 65 66 67
Altim30.10 30.10 30.09 30.08 30.08 30.07 30.05 30.03 30.02 30.04 30.03 30.07 30.08
VIS10 10 2.5 6 7 6 10 10 10 10 7 3 5
CIG-- -- 3 3 4 4 4 7 7 9 9 4 6
CoverCLRCLROVCOVCOVCOVCOVCOVCOVCOVCOVCOVCOVC
FltCatVFRVFRLIFRLIFRLIFRLIFRLIFRIFRIFRIFRIFRLIFRIFR
WX----BRBR--BR---------RA-RA BRBR
WDir01701802002101902000140010160170
WSpd0 4 7 5 4 6 5 0 4 0 4 4 3
WGst-- -- -- -- -- -- -- -- -- -- -- -- --
Raw hourly METARs
KSSF 030353Z AUTO 00000KT 10SM CLR 18/16 A3010 RMK AO2 SLP186 T01830156
KSSF 030453Z AUTO 17004KT 10SM CLR 19/17 A3010 RMK AO2 SLP187 T01890167
KSSF 030601Z AUTO 18007KT 2 1/2SM BR OVC003 21/19 A3009 RMK AO2 T02060189
KSSF 030653Z AUTO 20005KT 6SM BR OVC003 21/19 A3008 RMK AO2 SLP178 T02060189
KSSF 030753Z AUTO 21004KT 7SM OVC004 21/18 A3008 RMK AO2 SLP178 T02060183
KSSF 030853Z AUTO 19006KT 6SM BR OVC004 21/19 A3007 RMK AO2 SLP173 T02060189 58007
KSSF 030953Z AUTO 20005KT 10SM OVC004 21/19 A3005 RMK AO2 SLP169 T02110189
KSSF 031053Z AUTO 00000KT 10SM OVC007 21/19 A3003 RMK AO2 SLP160 T02110189
KSSF 031153Z AUTO 14004KT 10SM OVC007 21/19 A3002 RMK AO2 CIG 006V010 SLP157 T02110189 10211 20206 56017
KSSF 031253Z 00000KT 10SM OVC009 21/19 A3004 RMK AO2 SLP164 T02110189
KSSF 031353Z 01004KT 7SM -RA BKN009 OVC110 21/18 A3003 RMK AO2 RAB02E12B36 SLP161 P0000 T02060183
KSSF 031453Z 16004KT 3SM -RA BR BKN004 OVC007 21/19 A3007 RMK AO2 SLP176 P0001 60001 T02060189 53017
KSSF 031553Z 17003KT 5SM BR BKN006 BKN009 OVC015 21/19 A3008 RMK AO2 RAE34 SLP178 P0001 T02110194



Page loaded:  16:22 UTC  |   08:22 AM Pacific  |   09:22 AM Mountain  |   10:22 AM Central  |   11:22 AM Eastern

 

ADVISORIES

FORECASTS

FORECASTS

OBSERVATIONS

USER TOOLS

ABOUT US